Time;durP1;ratioP1;P1;durP2;ratioP2;P2;SDS_P1;SDS_P2;PMS_P1;PMS_P2;Temp;Humidity;BMP_temperature;BMP_pressure;BME280_temperature;BME280_humidity;BME280_pressure;Samples;Min_cycle;Max_cycle;Signal;HPM_P1;HPM_P2
2023/06/21 00:01:41;;;;;;;11.13;6.57;;;27.40;59.10;;;;;;5113222;28;20036;-69
2023/06/21 00:04:10;;;;;;;13.25;7.07;;;27.30;59.10;;;;;;5127724;27;20054;-69
2023/06/21 00:06:38;;;;;;;10.75;7.05;;;27.40;59.10;;;;;;5112952;28;20043;-69
2023/06/21 00:09:04;;;;;;;9.38;7.10;;;27.40;59.10;;;;;;5113154;28;20049;-69
2023/06/21 00:11:31;;;;;;;12.55;7.28;;;27.40;59.20;;;;;;5112912;28;20531;-70
2023/06/21 00:13:57;;;;;;;12.88;7.80;;;27.50;59.20;;;;;;5112758;28;20088;-69
2023/06/21 00:16:23;;;;;;;11.93;6.95;;;27.60;59.20;;;;;;5099515;28;20048;-69
2023/06/21 00:18:49;;;;;;;15.82;7.28;;;27.50;59.20;;;;;;5092349;28;20077;-69
2023/06/21 00:21:16;;;;;;;11.30;6.95;;;27.60;59.20;;;;;;5092385;28;20114;-69
2023/06/21 00:23:42;;;;;;;9.23;6.03;;;27.60;59.20;;;;;;5092476;28;20036;-69
2023/06/21 00:26:08;;;;;;;7.55;6.13;;;27.50;59.30;;;;;;5092449;28;20036;-68
2023/06/21 00:28:35;;;;;;;10.82;6.20;;;27.50;59.30;;;;;;5092020;28;20028;-69
2023/06/21 00:31:01;;;;;;;9.65;7.28;;;27.60;59.30;;;;;;5092165;28;20047;-69
2023/06/21 00:33:26;;;;;;;11.82;6.85;;;27.50;59.30;;;;;;5091910;28;20036;-70
2023/06/21 00:35:52;;;;;;;10.30;6.55;;;27.60;59.30;;;;;;5092155;28;20040;-68
2023/06/21 00:38:20;;;;;;;9.43;6.82;;;27.60;59.30;;;;;;5092171;28;20421;-69
2023/06/21 00:40:49;;;;;;;11.23;6.45;;;27.50;59.30;;;;;;5090828;28;20035;-69
2023/06/21 00:43:16;;;;;;;9.77;7.05;;;27.60;59.30;;;;;;5089409;28;20067;-69
2023/06/21 00:45:45;;;;;;;10.05;7.18;;;27.50;59.30;;;;;;5090731;28;20040;-68
2023/06/21 00:48:11;;;;;;;10.90;6.72;;;27.60;59.40;;;;;;5073309;28;20043;-69
2023/06/21 00:50:39;;;;;;;10.35;7.18;;;27.60;59.40;;;;;;5090396;28;20036;-69
2023/06/21 00:53:05;;;;;;;11.27;6.72;;;27.60;59.40;;;;;;5090287;28;20542;-69
2023/06/21 00:55:32;;;;;;;11.82;7.70;;;27.70;59.50;;;;;;5091542;28;20044;-69
2023/06/21 00:57:58;;;;;;;11.65;6.90;;;27.60;59.40;;;;;;5089458;28;20085;-69
2023/06/21 01:00:25;;;;;;;9.88;7.28;;;27.60;59.50;;;;;;5091611;28;20040;-70
2023/06/21 01:02:54;;;;;;;18.33;7.68;;;27.50;59.50;;;;;;5089903;28;20040;-69
2023/06/21 01:05:24;;;;;;;15.48;6.53;;;27.60;59.40;;;;;;5090367;28;20039;-69
2023/06/21 01:08:18;;;;;;;9.82;7.50;;;27.60;59.50;;;;;;5091883;28;20040;-69
2023/06/21 01:10:56;;;;;;;14.93;7.25;;;27.60;59.50;;;;;;5091462;28;20052;-70
2023/06/21 01:14:00;;;;;;;8.40;6.15;;;27.60;59.50;;;;;;5091357;28;20051;-69
2023/06/21 01:16:30;;;;;;;;;;;27.80;59.50;;;;;;5094566;28;20028;-69
2023/06/21 01:19:01;;;;;;;10.15;7.20;;;27.50;59.50;;;;;;5091444;28;19912;-69
2023/06/21 01:21:29;;;;;;;10.88;7.00;;;27.60;59.50;;;;;;5090048;28;20506;-69
2023/06/21 01:24:31;;;;;;;12.45;6.88;;;27.50;59.50;;;;;;5089941;28;20428;-70
2023/06/21 01:27:09;;;;;;;9.80;6.70;;;27.60;59.50;;;;;;5091581;28;20462;-69
2023/06/21 01:29:39;;;;;;;9.68;7.05;;;27.60;59.50;;;;;;5091244;28;20471;-69
2023/06/21 01:32:10;;;;;;;10.15;6.82;;;27.50;59.50;;;;;;5091157;28;20392;-69
2023/06/21 01:34:38;;;;;;;10.63;6.75;;;27.50;59.50;;;;;;5089621;28;20487;-69
2023/06/21 01:37:06;;;;;;;8.30;7.13;;;27.60;59.50;;;;;;5091288;28;20032;-69
2023/06/21 01:39:33;;;;;;;12.00;7.00;;;27.50;59.50;;;;;;5091284;28;20059;-69
2023/06/21 01:41:58;;;;;;;10.27;7.35;;;27.50;59.50;;;;;;5091309;28;20035;-69
2023/06/21 01:44:27;;;;;;;9.98;7.18;;;27.40;59.50;;;;;;5088457;28;20052;-69
2023/06/21 01:46:54;;;;;;;11.35;7.35;;;27.50;59.60;;;;;;5073349;28;20112;-69
2023/06/21 01:49:21;;;;;;;11.18;6.97;;;27.30;59.60;;;;;;5090082;28;20055;-70
2023/06/21 01:51:49;;;;;;;11.73;7.50;;;27.40;59.70;;;;;;5089873;28;20510;-69
2023/06/21 01:54:16;;;;;;;8.88;7.53;;;27.40;59.70;;;;;;5090777;28;20044;-70
2023/06/21 01:56:43;;;;;;;13.90;9.82;;;27.40;59.70;;;;;;5089837;28;20072;-69
2023/06/21 01:59:09;;;;;;;17.92;9.45;;;27.50;59.60;;;;;;5089681;28;20044;-68
2023/06/21 02:01:39;;;;;;;13.23;8.93;;;27.50;59.60;;;;;;5071782;28;20082;-69
2023/06/21 02:04:07;;;;;;;11.88;9.18;;;27.50;59.60;;;;;;5090808;28;20506;-69
2023/06/21 02:06:35;;;;;;;12.40;7.07;;;27.40;59.70;;;;;;5090848;28;20028;-69
2023/06/21 02:09:05;;;;;;;8.77;6.72;;;27.40;59.60;;;;;;5089833;28;20043;-69
2023/06/21 02:11:32;;;;;;;13.77;7.60;;;27.40;59.60;;;;;;5090758;28;20028;-69
2023/06/21 02:14:00;;;;;;;9.82;6.93;;;27.50;59.60;;;;;;5089650;28;20036;-69
2023/06/21 02:16:30;;;;;;;10.02;7.38;;;27.60;59.60;;;;;;5091105;28;20079;-69
2023/06/21 02:19:00;;;;;;;9.20;6.60;;;27.50;59.60;;;;;;5096183;28;20024;-69
2023/06/21 02:21:26;;;;;;;10.38;7.55;;;27.50;59.60;;;;;;5094679;28;20443;-69
2023/06/21 02:23:52;;;;;;;9.32;6.78;;;27.50;59.60;;;;;;5094662;28;20056;-69
2023/06/21 02:26:18;;;;;;;10.02;7.03;;;27.50;59.60;;;;;;5094643;28;20036;-69
2023/06/21 02:28:45;;;;;;;10.55;7.75;;;27.40;59.60;;;;;;5093477;28;20066;-69
2023/06/21 02:31:11;;;;;;;10.88;6.57;;;27.50;59.60;;;;;;5094926;28;20070;-69
2023/06/21 02:33:38;;;;;;;6.35;5.20;;;27.40;59.60;;;;;;5094272;28;20047;-69
2023/06/21 02:36:05;;;;;;;8.98;7.03;;;27.30;59.60;;;;;;5094567;28;20036;-69
2023/06/21 02:38:34;;;;;;;10.43;6.63;;;27.30;59.60;;;;;;5093066;28;20040;-69
2023/06/21 02:41:00;;;;;;;8.38;6.68;;;27.30;59.60;;;;;;5093225;28;20119;-69
2023/06/21 02:43:26;;;;;;;11.18;6.35;;;27.40;59.60;;;;;;5093035;28;20138;-69
2023/06/21 02:45:53;;;;;;;9.95;6.25;;;27.40;59.60;;;;;;5094278;28;20094;-69
2023/06/21 02:48:19;;;;;;;8.63;6.28;;;27.30;59.60;;;;;;5094176;28;20036;-68
2023/06/21 02:50:47;;;;;;;8.10;6.78;;;27.30;59.60;;;;;;5093017;28;20040;-69
2023/06/21 02:53:13;;;;;;;9.30;5.57;;;27.30;59.70;;;;;;5093978;28;20491;-69
2023/06/21 02:55:39;;;;;;;7.75;6.30;;;27.30;59.80;;;;;;5094339;28;20072;-69
2023/06/21 02:58:05;;;;;;;7.03;6.10;;;27.40;59.80;;;;;;5094312;28;20046;-69
2023/06/21 03:00:31;;;;;;;7.82;6.07;;;27.40;59.80;;;;;;5092631;28;20044;-69
2023/06/21 03:03:01;;;;;;;11.93;6.00;;;27.50;59.80;;;;;;5092697;28;20482;-68
2023/06/21 03:05:29;;;;;;;15.02;6.72;;;27.30;59.80;;;;;;5092286;28;20039;-67
2023/06/21 03:07:57;;;;;;;12.80;8.82;;;27.40;59.80;;;;;;5093699;28;20047;-69
2023/06/21 03:10:23;;;;;;;8.13;6.10;;;27.40;59.80;;;;;;5092529;28;20028;-69
2023/06/21 03:12:49;;;;;;;8.25;5.88;;;27.40;59.80;;;;;;5093851;28;20123;-69
2023/06/21 03:15:19;;;;;;;10.90;5.22;;;27.40;59.80;;;;;;5091975;28;20566;-69
2023/06/21 03:17:45;;;;;;;8.50;4.90;;;27.40;59.80;;;;;;5092412;28;20028;-69
2023/06/21 03:20:13;;;;;;;6.43;5.15;;;27.30;60.00;;;;;;5092257;28;20449;-69
2023/06/21 03:22:41;;;;;;;6.35;5.53;;;27.50;59.80;;;;;;5092186;28;20368;-69
2023/06/21 03:25:12;;;;;;;6.35;5.75;;;27.40;59.80;;;;;;5094875;28;20482;-69
2023/06/21 03:27:40;;;;;;;5.85;5.35;;;27.30;59.70;;;;;;5091963;28;20031;-69
2023/06/21 03:30:11;;;;;;;6.90;5.38;;;27.40;59.70;;;;;;5104177;28;20035;-69
2023/06/21 03:32:48;;;;;;;6.18;5.45;;;27.50;59.80;;;;;;5095425;28;20483;-69
2023/06/21 03:35:17;;;;;;;9.20;5.30;;;27.40;59.70;;;;;;5073375;28;20048;-69
2023/06/21 03:37:46;;;;;;;6.28;5.53;;;27.30;59.60;;;;;;5073836;28;20488;-69
2023/06/21 03:40:16;;;;;;;6.30;5.30;;;27.40;59.70;;;;;;5057117;28;20431;-69
2023/06/21 03:42:44;;;;;;;9.02;5.43;;;27.40;59.60;;;;;;5073537;28;20071;-69
2023/06/21 03:45:11;;;;;;;6.10;5.50;;;27.30;59.70;;;;;;5073656;28;20067;-69
2023/06/21 03:47:39;;;;;;;6.72;5.97;;;27.30;59.70;;;;;;5073763;28;20124;-69
2023/06/21 03:50:07;;;;;;;4.50;3.50;;;27.30;59.70;;;;;;5073699;28;20534;-67
2023/06/21 03:52:35;;;;;;;4.95;3.00;;;27.30;59.80;;;;;;5073599;28;20044;-67
2023/06/21 03:55:01;;;;;;;5.68;4.15;;;27.30;59.60;;;;;;5073584;28;20044;-67
2023/06/21 03:57:28;;;;;;;5.78;4.78;;;27.30;58.60;;;;;;5073397;28;20036;-67
2023/06/21 03:59:54;;;;;;;5.90;5.30;;;27.30;57.70;;;;;;5069824;28;20411;-67
2023/06/21 04:02:21;;;;;;;6.32;5.00;;;27.20;57.00;;;;;;5049775;28;20041;-67
2023/06/21 04:04:50;;;;;;;5.20;4.70;;;27.30;56.60;;;;;;5049986;28;20075;-67
2023/06/21 04:07:19;;;;;;;6.88;4.68;;;27.30;56.30;;;;;;5087042;28;20182;-69
2023/06/21 04:09:46;;;;;;;5.88;4.80;;;27.30;56.10;;;;;;5073163;28;20079;-67
2023/06/21 04:12:12;;;;;;;6.18;5.50;;;27.20;55.90;;;;;;5090050;28;20556;-68
2023/06/21 04:14:38;;;;;;;7.75;5.68;;;27.30;55.70;;;;;;5072907;28;20044;-68
2023/06/21 04:17:04;;;;;;;6.47;4.85;;;27.30;57.40;;;;;;5089964;28;20040;-68
2023/06/21 04:19:31;;;;;;;6.95;5.30;;;28.00;58.90;;;;;;5023212;28;20039;-68
2023/06/21 04:21:57;;;;;;;5.00;4.50;;;28.30;58.90;;;;;;5088181;28;20508;-68
2023/06/21 04:24:23;;;;;;;7.07;5.53;;;28.40;58.90;;;;;;5089824;28;20119;-67
2023/06/21 04:26:49;;;;;;;7.03;5.22;;;28.20;56.80;;;;;;5089726;28;20475;-68
2023/06/21 04:29:18;;;;;;;7.85;5.40;;;28.10;56.90;;;;;;5089835;28;20047;-67
2023/06/21 04:31:44;;;;;;;7.53;5.57;;;28.10;56.40;;;;;;5072836;28;20074;-68
2023/06/21 04:34:10;;;;;;;5.85;4.70;;;27.80;55.60;;;;;;5088536;28;20047;-68
2023/06/21 04:36:37;;;;;;;6.68;5.40;;;27.80;56.20;;;;;;5092254;28;20127;-68
2023/06/21 04:39:03;;;;;;;6.82;5.13;;;27.80;56.30;;;;;;5091603;28;20040;-68
2023/06/21 04:41:29;;;;;;;6.10;5.13;;;27.80;56.40;;;;;;5092062;28;20039;-68
2023/06/21 04:43:55;;;;;;;6.20;5.10;;;27.70;56.50;;;;;;5092097;28;20063;-68
2023/06/21 04:46:23;;;;;;;7.25;5.60;;;27.70;56.60;;;;;;5123352;27;20459;-68
2023/06/21 04:48:50;;;;;;;5.93;4.68;;;27.60;56.70;;;;;;5092018;28;20051;-68
2023/06/21 04:51:16;;;;;;;5.22;4.55;;;27.70;56.80;;;;;;5090678;28;20115;-68
2023/06/21 04:53:44;;;;;;;4.60;4.20;;;27.70;57.10;;;;;;5091754;28;20040;-69
2023/06/21 04:56:12;;;;;;;5.32;4.82;;;27.70;57.20;;;;;;5091628;28;20114;-68
2023/06/21 04:58:39;;;;;;;8.98;5.55;;;27.70;55.80;;;;;;5091934;28;20028;-68
2023/06/21 05:01:08;;;;;;;5.80;5.00;;;27.80;54.60;;;;;;5091848;28;20105;-68
2023/06/21 05:03:34;;;;;;;7.30;5.05;;;27.50;53.60;;;;;;5091806;28;20035;-68
2023/06/21 05:06:01;;;;;;;5.32;4.82;;;27.50;54.30;;;;;;5091614;28;20110;-69
2023/06/21 05:08:27;;;;;;;7.75;4.97;;;27.40;55.70;;;;;;5089216;28;20040;-66
2023/06/21 05:10:54;;;;;;;5.95;5.03;;;27.50;56.20;;;;;;5091502;28;20024;-68
2023/06/21 05:13:20;;;;;;;6.65;5.57;;;27.60;55.00;;;;;;5091604;28;20429;-68
2023/06/21 05:15:46;;;;;;;6.05;5.43;;;27.50;55.60;;;;;;5090448;28;20074;-69
2023/06/21 05:18:12;;;;;;;6.63;5.75;;;27.50;55.20;;;;;;5091500;28;20024;-68
2023/06/21 05:20:38;;;;;;;7.45;5.72;;;27.60;55.50;;;;;;5091487;28;20426;-69
2023/06/21 05:23:04;;;;;;;8.77;6.55;;;27.60;55.60;;;;;;5094914;28;20095;-68
2023/06/21 05:25:30;;;;;;;7.40;6.57;;;27.50;57.30;;;;;;5110369;28;20125;-67
2023/06/21 05:27:56;;;;;;;8.38;5.45;;;27.70;57.30;;;;;;5111283;28;20031;-68
2023/06/21 05:30:22;;;;;;;6.60;5.85;;;27.60;57.20;;;;;;5111675;28;20546;-68
2023/06/21 05:32:48;;;;;;;6.88;5.43;;;27.70;56.30;;;;;;5111592;28;20119;-68
2023/06/21 05:35:14;;;;;;;7.43;6.20;;;27.50;56.40;;;;;;5111638;28;20035;-68
2023/06/21 05:37:40;;;;;;;6.93;5.57;;;27.60;56.40;;;;;;5112276;28;20032;-68
2023/06/21 05:40:08;;;;;;;7.93;6.10;;;27.70;56.20;;;;;;5111384;28;20035;-68
2023/06/21 05:42:35;;;;;;;9.93;6.63;;;27.50;56.70;;;;;;5111724;28;20081;-67
2023/06/21 05:45:01;;;;;;;13.15;8.43;;;27.60;56.00;;;;;;5111424;28;20031;-67
2023/06/21 05:47:29;;;;;;;6.53;5.75;;;27.50;56.60;;;;;;5111726;28;20073;-67
2023/06/21 05:49:55;;;;;;;7.47;4.80;;;27.70;55.80;;;;;;5113346;28;20024;-67
2023/06/21 05:52:21;;;;;;;4.97;4.43;;;27.60;56.30;;;;;;5096451;28;20047;-68
2023/06/21 05:54:47;;;;;;;6.10;5.53;;;27.60;56.20;;;;;;5115486;28;20031;-67
2023/06/21 05:57:14;;;;;;;5.75;4.68;;;27.60;56.80;;;;;;5115703;28;20531;-68
2023/06/21 05:59:41;;;;;;;6.68;5.15;;;27.70;53.70;;;;;;5114398;28;20468;-67
2023/06/21 06:02:07;;;;;;;6.43;4.97;;;27.50;53.80;;;;;;5115642;28;20136;-67
2023/06/21 06:04:33;;;;;;;4.50;4.10;;;27.40;53.80;;;;;;5096189;28;20031;-67
2023/06/21 06:06:59;;;;;;;6.07;3.92;;;27.50;54.50;;;;;;5115335;28;20390;-69
2023/06/21 06:09:25;;;;;;;4.70;4.30;;;27.40;54.20;;;;;;5115580;28;20039;-68
2023/06/21 06:11:51;;;;;;;4.15;3.75;;;27.40;54.90;;;;;;5115679;28;20028;-69
2023/06/21 06:14:17;;;;;;;4.28;3.88;;;27.50;55.70;;;;;;5115423;28;20047;-69
2023/06/21 06:16:43;;;;;;;5.30;4.35;;;27.60;56.10;;;;;;5115225;28;20164;-68
2023/06/21 06:19:09;;;;;;;5.55;4.95;;;27.50;56.40;;;;;;5114842;28;20110;-69
2023/06/21 06:21:36;;;;;;;6.18;3.90;;;27.50;56.20;;;;;;5110434;28;20036;-69
2023/06/21 06:24:03;;;;;;;6.32;4.95;;;27.50;56.20;;;;;;5115226;28;20111;-69
2023/06/21 06:26:29;;;;;;;5.00;4.53;;;27.50;56.30;;;;;;5115348;28;20040;-67
2023/06/21 06:28:55;;;;;;;6.18;4.07;;;27.60;55.60;;;;;;5115223;28;20034;-69
2023/06/21 06:31:23;;;;;;;4.60;4.13;;;27.40;55.00;;;;;;5115222;28;20035;-68
2023/06/21 06:33:49;;;;;;;4.88;3.67;;;27.50;55.20;;;;;;5114991;28;20032;-68
2023/06/21 06:36:15;;;;;;;6.00;5.22;;;27.40;54.10;;;;;;5113173;28;20055;-66
2023/06/21 06:38:41;;;;;;;5.10;4.35;;;27.40;54.80;;;;;;5105599;28;20059;-66
2023/06/21 06:41:08;;;;;;;5.47;4.47;;;27.40;54.90;;;;;;5114924;28;20042;-66
2023/06/21 06:43:34;;;;;;;5.63;4.28;;;27.40;54.90;;;;;;5115193;27;20056;-66
2023/06/21 06:46:00;;;;;;;6.07;5.47;;;27.50;55.00;;;;;;5100755;28;20515;-65
2023/06/21 06:48:26;;;;;;;5.50;4.70;;;27.50;55.20;;;;;;5094365;28;20082;-66
2023/06/21 06:50:52;;;;;;;6.53;4.93;;;27.50;55.70;;;;;;5094216;28;20036;-66
2023/06/21 06:53:18;;;;;;;6.00;5.40;;;27.50;55.60;;;;;;5097912;28;20031;-67
2023/06/21 06:55:44;;;;;;;4.88;4.43;;;27.60;55.90;;;;;;5114515;28;20047;-66
2023/06/21 06:58:10;;;;;;;6.45;4.85;;;27.50;56.30;;;;;;5114799;28;20055;-66
2023/06/21 07:00:36;;;;;;;4.72;4.32;;;27.50;55.80;;;;;;5112914;28;20474;-64
2023/06/21 07:03:02;;;;;;;6.22;4.85;;;27.50;55.60;;;;;;5114090;28;20028;-66
2023/06/21 07:05:28;;;;;;;7.43;4.78;;;27.40;55.40;;;;;;5114268;28;20039;-68
2023/06/21 07:07:55;;;;;;;5.88;5.15;;;27.60;55.30;;;;;;5114411;28;20348;-69
2023/06/21 07:10:21;;;;;;;6.13;5.20;;;27.50;55.30;;;;;;5114469;28;20034;-67
2023/06/21 07:12:47;;;;;;;5.57;5.07;;;27.40;55.30;;;;;;5094820;28;20040;-66
2023/06/21 07:15:13;;;;;;;7.00;5.45;;;27.40;54.90;;;;;;5111764;28;20044;-65
2023/06/21 07:17:39;;;;;;;8.88;5.32;;;27.50;54.70;;;;;;5114291;28;20051;-66
2023/06/21 07:20:08;;;;;;;6.05;4.57;;;27.40;54.70;;;;;;5094721;28;20051;-66
2023/06/21 07:22:34;;;;;;;5.95;4.85;;;27.50;54.70;;;;;;5114189;27;20027;-66
2023/06/21 07:25:00;;;;;;;5.90;5.00;;;27.40;54.80;;;;;;5113858;28;20051;-67
2023/06/21 07:27:26;;;;;;;5.68;5.03;;;27.40;54.80;;;;;;5114257;28;20027;-68
2023/06/21 07:29:52;;;;;;;5.55;5.05;;;27.50;54.70;;;;;;5113917;28;20061;-66
2023/06/21 07:32:18;;;;;;;5.55;5.00;;;27.40;55.00;;;;;;5094211;28;20124;-67
2023/06/21 07:34:44;;;;;;;5.57;4.97;;;27.50;55.30;;;;;;5110937;28;20063;-67
2023/06/21 07:37:11;;;;;;;5.80;5.15;;;27.40;55.50;;;;;;5113975;28;20128;-65
2023/06/21 07:39:37;;;;;;;6.30;4.60;;;27.50;55.60;;;;;;5110995;28;20039;-66
2023/06/21 07:42:04;;;;;;;5.22;4.75;;;27.50;55.70;;;;;;5113956;28;20067;-66
2023/06/21 07:44:31;;;;;;;6.70;4.78;;;27.50;55.70;;;;;;5113730;28;20437;-66
2023/06/21 07:46:57;;;;;;;6.72;5.43;;;27.50;55.70;;;;;;5113541;28;20039;-66
2023/06/21 07:49:23;;;;;;;5.18;4.72;;;27.50;55.60;;;;;;5113644;28;20043;-66
2023/06/21 07:51:50;;;;;;;6.65;4.82;;;27.50;55.80;;;;;;5111210;28;20043;-66
2023/06/21 07:54:16;;;;;;;5.75;5.10;;;27.60;55.90;;;;;;5113707;28;20027;-66
2023/06/21 07:56:42;;;;;;;4.80;4.38;;;27.50;56.10;;;;;;5110890;28;20513;-68
2023/06/21 07:59:08;;;;;;;7.45;4.38;;;27.50;55.90;;;;;;5113416;28;20127;-67
2023/06/21 08:01:35;;;;;;;5.38;4.88;;;27.50;55.80;;;;;;5113282;28;20150;-67
2023/06/21 08:04:01;;;;;;;7.75;5.38;;;27.60;55.50;;;;;;5113460;28;20039;-67
2023/06/21 08:06:27;;;;;;;6.40;4.68;;;27.60;55.30;;;;;;5113164;28;20035;-69
2023/06/21 08:08:53;;;;;;;12.80;5.68;;;27.60;55.10;;;;;;5113168;28;20039;-66
2023/06/21 08:11:19;;;;;;;5.10;4.60;;;27.50;54.60;;;;;;5113201;28;20035;-67
2023/06/21 08:13:45;;;;;;;4.50;3.92;;;27.50;54.90;;;;;;5111777;28;20122;-66
2023/06/21 08:16:11;;;;;;;4.90;4.13;;;27.50;55.00;;;;;;5112576;28;20036;-65
2023/06/21 08:18:37;;;;;;;5.18;4.68;;;27.40;54.70;;;;;;5112424;28;20046;-67
2023/06/21 08:21:05;;;;;;;5.70;4.85;;;27.60;55.00;;;;;;5112703;28;20035;-66
2023/06/21 08:23:31;;;;;;;9.23;4.95;;;27.40;55.10;;;;;;5112466;28;20035;-66
2023/06/21 08:25:57;;;;;;;6.72;5.45;;;27.60;54.50;;;;;;5110744;28;20114;-66
2023/06/21 08:28:23;;;;;;;7.47;5.53;;;27.40;55.30;;;;;;5112543;28;20352;-66
2023/06/21 08:30:49;;;;;;;7.68;6.05;;;27.30;55.70;;;;;;5112310;28;20032;-66
2023/06/21 08:33:15;;;;;;;6.15;5.55;;;27.50;55.50;;;;;;5112171;28;20043;-66
2023/06/21 08:35:41;;;;;;;5.82;5.22;;;27.50;55.80;;;;;;5112282;28;20030;-65
2023/06/21 08:38:07;;;;;;;6.07;5.18;;;27.50;55.90;;;;;;5110160;28;20048;-68
2023/06/21 08:40:36;;;;;;;6.95;4.95;;;27.40;55.90;;;;;;5112375;28;20031;-66
2023/06/21 08:43:02;;;;;;;5.47;3.95;;;27.30;56.70;;;;;;5112148;28;20436;-67
2023/06/21 08:45:27;;;;;;;6.80;5.40;;;27.40;57.80;;;;;;5109813;28;20039;-66
2023/06/21 08:47:57;;;;;;;5.75;4.32;;;27.40;58.60;;;;;;5112433;28;20092;-66
2023/06/21 08:50:24;;;;;;;13.93;6.05;;;27.60;58.20;;;;;;5112099;28;20160;-63
2023/06/21 08:52:54;;;;;;;6.07;5.47;;;27.70;58.60;;;;;;5112000;28;20039;-67
2023/06/21 08:55:25;;;;;;;7.28;5.20;;;27.60;60.30;;;;;;5112220;28;20035;-66
2023/06/21 08:58:01;;;;;;;6.75;5.40;;;27.80;57.90;;;;;;5110634;28;20155;-66
2023/06/21 09:00:37;;;;;;;11.50;6.13;;;27.70;56.80;;;;;;5111880;28;20501;-66
2023/06/21 09:03:12;;;;;;;10.80;5.78;;;27.70;56.40;;;;;;5111965;28;20123;-66
2023/06/21 09:05:42;;;;;;;7.95;6.07;;;27.70;57.90;;;;;;5111963;28;20074;-66
2023/06/21 09:08:08;;;;;;;12.38;6.22;;;27.90;57.40;;;;;;5112027;28;20039;-68
2023/06/21 09:10:36;;;;;;;6.40;5.00;;;27.90;55.80;;;;;;5112033;28;20032;-66
2023/06/21 09:13:03;;;;;;;6.00;4.97;;;27.90;55.10;;;;;;5112205;28;20436;-65
2023/06/21 09:15:29;;;;;;;7.88;6.53;;;27.90;54.90;;;;;;5109701;28;20036;-69
2023/06/21 09:17:56;;;;;;;6.88;6.18;;;27.90;54.90;;;;;;5111970;28;20107;-66
2023/06/21 09:20:27;;;;;;;6.70;6.00;;;27.90;54.80;;;;;;5109780;28;20032;-67
2023/06/21 09:22:55;;;;;;;7.90;6.88;;;27.90;54.70;;;;;;5111707;28;20036;-66
2023/06/21 09:25:21;;;;;;;7.00;5.65;;;27.70;54.80;;;;;;5111816;28;20043;-66
2023/06/21 09:27:48;;;;;;;8.38;5.93;;;27.80;54.90;;;;;;5111725;28;20063;-66
2023/06/21 09:30:14;;;;;;;7.53;6.72;;;27.80;55.00;;;;;;5107434;28;20050;-66
2023/06/21 09:32:41;;;;;;;7.15;6.00;;;27.80;55.40;;;;;;5091873;28;20449;-66
2023/06/21 09:35:09;;;;;;;6.75;5.30;;;27.90;55.50;;;;;;5111528;28;20039;-66
2023/06/21 09:37:36;;;;;;;6.72;6.00;;;27.80;55.30;;;;;;5111530;28;20056;-65
2023/06/21 09:40:03;;;;;;;6.80;6.10;;;27.80;55.40;;;;;;5111956;28;20023;-66
2023/06/21 09:42:29;;;;;;;7.35;5.82;;;27.80;55.30;;;;;;5111398;28;20031;-66
2023/06/21 09:44:57;;;;;;;6.20;5.50;;;27.90;55.20;;;;;;5111288;28;20485;-67
2023/06/21 09:47:29;;;;;;;6.65;5.47;;;27.90;55.20;;;;;;5111478;28;20046;-66
2023/06/21 09:49:56;;;;;;;;;;;27.90;55.10;;;;;;5110342;28;20450;-65
2023/06/21 09:52:23;;;;;;;8.20;6.25;;;27.90;55.20;;;;;;5126177;28;19911;-66
2023/06/21 09:54:50;;;;;;;7.32;5.68;;;27.90;55.10;;;;;;5111052;28;20485;-66
2023/06/21 09:57:16;;;;;;;6.80;5.90;;;27.80;55.10;;;;;;5111209;28;20023;-65
2023/06/21 09:59:48;;;;;;;7.22;5.35;;;27.80;55.00;;;;;;5110215;28;20398;-65
2023/06/21 10:02:14;;;;;;;7.60;5.57;;;27.80;54.30;;;;;;5111378;28;20589;-65
2023/06/21 10:04:41;;;;;;;6.40;5.80;;;27.90;54.20;;;;;;5110047;28;20039;-66
2023/06/21 10:07:08;;;;;;;7.70;5.07;;;27.90;54.60;;;;;;5111304;28;20035;-65
2023/06/21 10:09:38;;;;;;;6.43;5.18;;;27.80;54.70;;;;;;5111277;28;20393;-66
2023/06/21 10:12:05;;;;;;;8.63;5.78;;;27.80;54.70;;;;;;5110100;28;20035;-66
2023/06/21 10:14:31;;;;;;;9.70;5.43;;;27.80;54.70;;;;;;5110916;28;20108;-66
2023/06/21 10:16:57;;;;;;;5.78;5.18;;;27.80;54.70;;;;;;5111043;28;20532;-67
2023/06/21 10:19:25;;;;;;;5.22;4.72;;;27.70;54.70;;;;;;5124393;28;20039;-66
2023/06/21 10:22:06;;;;;;;8.27;5.85;;;27.80;54.80;;;;;;5111285;28;20035;-66
2023/06/21 10:24:42;;;;;;;6.15;5.32;;;27.70;54.70;;;;;;5110856;28;20482;-67
2023/06/21 10:27:10;;;;;;;5.72;5.22;;;27.80;54.80;;;;;;5111073;28;20084;-67
2023/06/21 10:29:38;;;;;;;5.63;5.03;;;27.70;54.90;;;;;;5110859;28;20031;-67
2023/06/21 10:32:05;;;;;;;6.38;5.53;;;27.90;57.30;;;;;;5109880;28;20035;-66
2023/06/21 10:34:58;;;;;;;20.00;7.05;;;28.10;60.20;;;;;;5108652;28;20667;-67
2023/06/21 10:37:27;;;;;;;;;;;28.20;67.40;;;;;;5113509;28;20046;-67
2023/06/21 10:39:57;;;;;;;7.22;5.15;;;28.30;62.50;;;;;;5114707;27;19912;-69
2023/06/21 10:42:24;;;;;;;8.93;5.80;;;28.40;59.70;;;;;;5114551;28;20109;-66
2023/06/21 10:44:51;;;;;;;5.95;5.25;;;28.20;58.60;;;;;;5114633;28;20127;-69
2023/06/21 10:47:20;;;;;;;8.52;5.68;;;28.20;58.20;;;;;;5095426;28;20091;-68
2023/06/21 10:49:48;;;;;;;7.95;6.13;;;28.20;60.20;;;;;;5114760;28;20084;-66
2023/06/21 10:52:16;;;;;;;7.88;5.68;;;28.70;60.40;;;;;;5114532;28;20512;-66
2023/06/21 10:54:44;;;;;;;6.38;5.72;;;29.10;62.80;;;;;;5114451;28;20092;-66
2023/06/21 10:57:11;;;;;;;22.98;16.23;;;29.50;64.50;;;;;;5114488;28;20032;-68
2023/06/21 10:59:37;;;;;;;9.65;8.23;;;29.80;66.70;;;;;;5114580;28;20114;-67
2023/06/21 11:02:04;;;;;;;9.20;6.82;;;29.80;60.30;;;;;;5114285;28;20384;-67
2023/06/21 11:04:30;;;;;;;7.55;6.50;;;29.70;60.10;;;;;;5114145;28;20411;-66
2023/06/21 11:07:00;;;;;;;6.95;5.60;;;29.40;58.60;;;;;;5114151;27;20172;-67
2023/06/21 11:09:26;;;;;;;9.00;6.40;;;29.30;57.90;;;;;;5114215;28;20167;-67
2023/06/21 11:11:53;;;;;;;8.35;6.85;;;29.10;57.90;;;;;;5114187;28;20034;-66
2023/06/21 11:14:29;;;;;;;5.97;4.90;;;29.00;57.70;;;;;;5114243;28;20497;-67
2023/06/21 11:17:24;;;;;;;5.03;4.53;;;29.00;57.10;;;;;;5113956;28;20035;-68
2023/06/21 11:19:50;;;;;;;6.93;5.93;;;28.90;56.60;;;;;;5091227;28;20048;-66
2023/06/21 11:22:18;;;;;;;4.85;4.43;;;28.90;56.80;;;;;;5091198;28;20475;-67
2023/06/21 11:24:58;;;;;;;7.55;5.45;;;28.70;56.70;;;;;;5073932;28;20052;-68
2023/06/21 11:27:27;;;;;;;6.38;4.65;;;28.70;56.80;;;;;;5074155;28;20119;-68
2023/06/21 11:30:09;;;;;;;6.68;5.10;;;28.70;56.80;;;;;;5091019;28;20100;-67
2023/06/21 11:32:39;;;;;;;6.28;5.13;;;28.80;56.70;;;;;;5090810;28;20137;-67
2023/06/21 11:35:09;;;;;;;5.72;4.72;;;28.70;56.50;;;;;;5090682;28;20089;-66
2023/06/21 11:37:47;;;;;;;7.45;5.35;;;28.60;56.40;;;;;;5090663;28;20055;-66
2023/06/21 11:40:15;;;;;;;6.50;5.22;;;28.60;56.40;;;;;;5071063;28;20133;-66
2023/06/21 11:42:49;;;;;;;6.57;4.88;;;28.70;56.40;;;;;;5090244;28;20101;-66
2023/06/21 11:46:02;;;;;;;7.10;5.05;;;28.60;56.30;;;;;;5080739;28;20843;-66
2023/06/21 11:48:30;;;;;;;5.30;4.70;;;28.70;56.40;;;;;;4974303;28;20194;-66
2023/06/21 11:51:09;;;;;;;6.18;4.20;;;28.50;56.20;;;;;;4990857;28;20189;-66
2023/06/21 11:53:43;;;;;;;6.03;4.75;;;28.50;56.30;;;;;;4991093;28;20056;-66
2023/06/21 11:56:09;;;;;;;5.63;4.85;;;28.60;56.50;;;;;;5009306;28;20057;-66
2023/06/21 11:58:35;;;;;;;5.40;4.55;;;28.50;56.60;;;;;;5030160;28;20081;-66
2023/06/21 12:01:03;;;;;;;4.95;4.30;;;28.40;56.70;;;;;;5030301;28;20038;-65
2023/06/21 12:03:29;;;;;;;4.75;4.25;;;28.30;56.70;;;;;;5030166;28;20120;-66
2023/06/21 12:06:02;;;;;;;4.13;3.72;;;28.50;56.80;;;;;;4997310;28;20136;-67
2023/06/21 12:08:30;;;;;;;4.57;4.15;;;28.40;56.90;;;;;;5029949;28;20044;-67
2023/06/21 12:11:04;;;;;;;5.75;4.80;;;28.30;57.00;;;;;;5030101;28;20052;-66
2023/06/21 12:13:33;;;;;;;5.45;4.85;;;28.20;57.00;;;;;;5029958;28;20091;-69
2023/06/21 12:15:59;;;;;;;6.88;4.78;;;28.30;57.30;;;;;;5029984;28;20762;-65
2023/06/21 12:18:27;;;;;;;7.00;4.57;;;28.30;57.30;;;;;;5037401;28;20040;-67
2023/06/21 12:20:54;;;;;;;7.13;4.53;;;28.20;57.50;;;;;;5049354;28;20453;-67
2023/06/21 12:23:21;;;;;;;6.65;4.50;;;28.10;57.60;;;;;;5068981;28;20131;-67
2023/06/21 12:25:49;;;;;;;5.68;5.07;;;28.20;57.60;;;;;;5112535;28;20043;-68
2023/06/21 12:28:16;;;;;;;5.60;3.83;;;28.10;57.80;;;;;;5112534;28;20035;-68
2023/06/21 12:31:05;;;;;;;7.32;4.25;;;28.10;57.90;;;;;;5111472;28;20039;-67
2023/06/21 12:33:36;;;;;;;6.38;4.63;;;28.10;58.80;;;;;;5112387;28;20055;-69
2023/06/21 12:36:21;;;;;;;5.55;4.32;;;28.00;59.10;;;;;;5112507;28;20078;-69
2023/06/21 12:38:51;;;;;;;5.15;3.90;;;28.10;59.00;;;;;;5111970;28;20055;-67
2023/06/21 12:41:22;;;;;;;5.25;3.70;;;27.90;58.60;;;;;;5112116;28;20099;-68
2023/06/21 12:43:51;;;;;;;5.57;3.77;;;28.10;58.60;;;;;;5112086;28;20051;-69
2023/06/21 12:46:17;;;;;;;5.70;3.78;;;28.00;58.80;;;;;;5093474;28;20048;-66
2023/06/21 12:48:48;;;;;;;6.38;4.38;;;28.00;59.00;;;;;;5091364;28;20035;-67
2023/06/21 12:51:23;;;;;;;5.97;4.18;;;28.00;59.00;;;;;;5091600;28;20181;-67